Terminal Aerodrome Forecast
Issued by NWS St Louis, MO

Home | Current Version | Previous Version | Text Only | Print | Product List | Glossary On
Versions: 1 2 3 4 5 6 7 8 9 10 11 12 13 14 15 16 17 18 19 20 21 22 23 24
000
FTUS43 KLSX 301400 AAA
TAFSTL
TAF AMD
KSTL 301408Z 3014/0118 05004KT P6SM SKC
     FM301600 05006KT P6SM SCT005
      TEMPO 3016/3018 5SM BR BKN005
     FM301800 05005KT P6SM SCT025
     FM010000 10007KT P6SM SCT250
     FM011500 16006KT P6SM SCT250=

USA.gov is the U.S. government's official web portal to all federal, state and local government web resources and services.